Time;durP1;ratioP1;P1;durP2;ratioP2;P2;SDS_P1;SDS_P2;PMS_P1;PMS_P2;Temp;Humidity;BMP_temperature;BMP_pressure;BME280_temperature;BME280_humidity;BME280_pressure;Samples;Min_cycle;Max_cycle;Signal;HPM_P1;HPM_P2
2023/04/09 04:00:35;;;;;;;5.43;4.93;;;10.10;76.50;;;;;;5975400;23;20378;-74
2023/04/09 04:03:02;;;;;;;5.73;5.23;;;10.10;76.50;;;;;;4997787;28;20476;-74
2023/04/09 04:05:28;;;;;;;5.40;4.90;;;10.10;76.50;;;;;;4997771;28;20531;-74
2023/04/09 04:07:55;;;;;;;5.20;4.70;;;10.00;76.60;;;;;;4997990;28;20449;-74
2023/04/09 04:10:22;;;;;;;5.23;4.57;;;10.00;76.70;;;;;;4997811;28;20453;-76
2023/04/09 04:12:48;;;;;;;4.80;4.30;;;10.00;76.90;;;;;;5020013;23;20465;-75
2023/04/09 04:15:15;;;;;;;5.90;5.40;;;10.00;76.90;;;;;;4977538;28;20430;-74
2023/04/09 04:17:43;;;;;;;6.00;4.93;;;10.00;76.90;;;;;;4977542;28;20471;-75
2023/04/09 04:20:11;;;;;;;5.30;4.80;;;10.00;76.80;;;;;;4977455;28;20446;-75
2023/04/09 04:22:37;;;;;;;5.43;4.93;;;10.00;76.70;;;;;;4977309;28;20477;-75
2023/04/09 04:25:04;;;;;;;5.63;5.13;;;10.00;76.80;;;;;;4977005;28;20998;-75
2023/04/09 04:27:31;;;;;;;5.50;5.00;;;10.00;76.90;;;;;;4977339;28;20454;-75
2023/04/09 04:29:58;;;;;;;5.90;5.40;;;10.00;76.90;;;;;;4977324;28;20598;-75
2023/04/09 04:32:26;;;;;;;5.47;4.97;;;10.00;77.00;;;;;;4976898;28;20970;-75
2023/04/09 04:34:54;;;;;;;5.73;5.23;;;10.00;77.10;;;;;;4977120;28;20470;-74
2023/04/09 04:37:20;;;;;;;7.77;5.40;;;10.00;77.00;;;;;;4976760;28;20943;-75
2023/04/09 04:39:47;;;;;;;6.10;5.53;;;10.00;77.10;;;;;;4977121;28;20504;-75
2023/04/09 04:42:14;;;;;;;6.00;5.40;;;10.00;77.00;;;;;;4977030;28;20454;-75
2023/04/09 04:44:40;;;;;;;5.57;4.97;;;10.00;77.00;;;;;;4976875;28;20490;-74
2023/04/09 04:47:07;;;;;;;5.03;4.63;;;10.00;76.90;;;;;;4976959;28;20450;-75
2023/04/09 04:49:34;;;;;;;6.40;5.80;;;10.00;77.00;;;;;;4976915;28;20525;-75
2023/04/09 04:52:02;;;;;;;5.93;5.43;;;10.00;76.90;;;;;;4976877;28;20469;-74
2023/04/09 04:54:29;;;;;;;6.30;5.80;;;10.00;76.70;;;;;;4976803;28;20546;-74
2023/04/09 04:56:56;;;;;;;6.20;5.50;;;10.00;76.80;;;;;;4976794;28;20450;-74
2023/04/09 04:59:22;;;;;;;6.10;5.50;;;10.00;76.80;;;;;;4976817;28;20448;-75
2023/04/09 05:01:49;;;;;;;5.70;5.20;;;10.00;76.90;;;;;;4976531;28;20446;-75
2023/04/09 05:04:15;;;;;;;6.03;5.53;;;10.00;76.90;;;;;;4976571;28;20534;-75
2023/04/09 05:06:42;;;;;;;5.50;5.00;;;10.00;77.00;;;;;;4976591;28;20528;-75
2023/04/09 05:09:10;;;;;;;5.53;5.03;;;10.00;77.10;;;;;;4976315;28;20682;-75
2023/04/09 05:11:37;;;;;;;6.10;5.60;;;10.00;77.00;;;;;;4976491;28;20450;-75
2023/04/09 05:14:05;;;;;;;5.27;4.77;;;9.90;77.20;;;;;;4976064;28;20995;-75
2023/04/09 05:16:31;;;;;;;6.17;5.60;;;9.90;77.30;;;;;;4976144;28;20931;-75
2023/04/09 05:18:58;;;;;;;6.30;5.80;;;10.00;77.10;;;;;;4976357;28;20458;-75
2023/04/09 05:21:25;;;;;;;6.47;5.87;;;9.90;77.20;;;;;;4976025;28;21002;-75
2023/04/09 05:23:51;;;;;;;6.00;5.50;;;10.00;77.20;;;;;;4976239;28;20509;-74
2023/04/09 05:26:20;;;;;;;6.13;5.53;;;10.00;77.30;;;;;;4976106;28;20482;-75
2023/04/09 05:28:47;;;;;;;6.23;5.70;;;10.00;77.50;;;;;;4976509;28;20498;-75
2023/04/09 05:31:14;;;;;;;6.00;5.50;;;10.00;77.60;;;;;;4976176;28;20847;-75
2023/04/09 05:33:41;;;;;;;5.50;5.00;;;10.00;77.50;;;;;;4976024;28;20502;-75
2023/04/09 05:36:07;;;;;;;5.60;5.10;;;10.00;77.10;;;;;;4976031;28;20451;-75
2023/04/09 05:38:34;;;;;;;6.03;5.43;;;10.00;77.00;;;;;;4975691;28;21010;-74
2023/04/09 05:41:01;;;;;;;5.63;5.13;;;10.10;77.00;;;;;;4975600;28;20944;-75
2023/04/09 05:43:29;;;;;;;6.00;5.50;;;10.10;76.90;;;;;;4975849;28;20486;-75
2023/04/09 05:45:55;;;;;;;5.97;5.47;;;10.20;76.90;;;;;;4975817;28;20478;-75
2023/04/09 05:48:22;;;;;;;6.20;5.60;;;10.20;77.30;;;;;;4975824;28;20504;-75
2023/04/09 05:50:51;;;;;;;6.80;6.10;;;10.30;77.20;;;;;;4975743;28;20455;-74
2023/04/09 05:53:17;;;;;;;6.87;6.27;;;10.30;77.20;;;;;;4975692;28;20506;-75
2023/04/09 05:55:44;;;;;;;5.70;5.20;;;10.30;77.10;;;;;;4975684;28;20446;-75
2023/04/09 05:58:11;;;;;;;6.67;6.10;;;10.30;76.90;;;;;;4975654;28;20521;-75
2023/04/09 06:00:39;;;;;;;6.37;5.87;;;10.30;77.10;;;;;;4975392;28;20858;-75
2023/04/09 06:03:06;;;;;;;6.00;5.50;;;10.40;77.60;;;;;;4975658;28;20903;-74
2023/04/09 06:05:32;;;;;;;4.83;4.33;;;11.20;78.10;;;;;;4975709;28;20540;-75
2023/04/09 06:07:59;;;;;;;5.20;4.70;;;12.50;73.10;;;;;;4975420;28;20451;-75
2023/04/09 06:10:26;;;;;;;5.13;4.63;;;13.70;69.50;;;;;;4975388;28;20454;-75
2023/04/09 06:12:53;;;;;;;5.83;5.33;;;14.80;66.00;;;;;;4975270;28;20451;-76
2023/04/09 06:15:20;;;;;;;4.80;4.40;;;15.30;62.70;;;;;;4975616;28;20489;-76
2023/04/09 06:17:48;;;;;;;5.10;4.70;;;16.00;61.40;;;;;;4975337;28;20862;-76
2023/04/09 06:20:14;;;;;;;4.83;4.43;;;16.70;59.70;;;;;;4975292;28;20517;-76
2023/04/09 06:22:41;;;;;;;4.63;4.23;;;17.40;56.80;;;;;;4975174;28;20450;-76
2023/04/09 06:25:08;;;;;;;4.80;4.40;;;17.70;56.50;;;;;;4975147;28;20528;-76
2023/04/09 06:27:35;;;;;;;4.40;4.00;;;18.20;55.50;;;;;;4975073;28;20450;-75
2023/04/09 06:30:02;;;;;;;5.20;4.70;;;18.60;54.90;;;;;;4975082;28;20450;-74
2023/04/09 06:32:28;;;;;;;5.13;4.63;;;18.80;53.80;;;;;;4975074;28;20458;-76
2023/04/09 06:34:56;;;;;;;4.43;4.03;;;18.70;53.70;;;;;;4974629;28;20987;-76
2023/04/09 06:37:23;;;;;;;4.60;4.20;;;19.10;52.50;;;;;;4974948;28;20454;-76
2023/04/09 06:39:50;;;;;;;4.83;4.43;;;18.80;53.00;;;;;;4974905;28;20549;-76
2023/04/09 06:42:16;;;;;;;4.47;4.07;;;18.80;53.40;;;;;;4974937;28;20450;-76
2023/04/09 06:44:43;;;;;;;4.67;4.27;;;18.90;52.00;;;;;;4974822;28;20474;-76
2023/04/09 06:47:09;;;;;;;4.70;4.30;;;19.40;51.30;;;;;;4974474;28;21199;-76
2023/04/09 06:49:36;;;;;;;4.63;4.23;;;20.00;50.90;;;;;;4974717;28;20959;-76
2023/04/09 06:52:06;;;;;;;4.67;4.27;;;19.70;50.40;;;;;;4974785;28;20446;-75
2023/04/09 06:54:32;;;;;;;4.73;4.33;;;19.00;51.90;;;;;;4974507;28;20481;-76
2023/04/09 06:56:59;;;;;;;4.53;4.13;;;19.10;52.00;;;;;;4974508;28;20446;-76
2023/04/09 06:59:26;;;;;;;5.30;4.80;;;17.70;54.50;;;;;;4974632;28;20450;-76
2023/04/09 07:01:52;;;;;;;5.20;4.70;;;17.00;56.70;;;;;;4974653;28;20505;-75
2023/04/09 07:04:19;;;;;;;4.63;4.23;;;16.60;57.70;;;;;;4974244;28;21006;-75
2023/04/09 07:06:46;;;;;;;4.73;4.33;;;16.30;58.60;;;;;;4974526;28;20524;-76
2023/04/09 07:09:14;;;;;;;5.77;5.27;;;15.20;61.20;;;;;;4974582;28;20481;-75
2023/04/09 07:11:41;;;;;;;5.20;4.70;;;14.70;62.50;;;;;;4974508;28;20450;-76
2023/04/09 07:14:07;;;;;;;5.17;4.77;;;14.40;63.40;;;;;;4974164;28;20912;-75
2023/04/09 07:16:34;;;;;;;5.37;4.87;;;13.80;65.00;;;;;;4974508;28;20501;-76
2023/04/09 07:19:00;;;;;;;5.00;4.60;;;13.50;65.60;;;;;;4974464;28;20450;-75
2023/04/09 07:21:27;;;;;;;5.00;4.60;;;13.20;66.20;;;;;;4974485;28;20492;-76
2023/04/09 07:23:55;;;;;;;5.87;5.37;;;12.90;66.10;;;;;;4974352;28;20470;-76
2023/04/09 07:26:23;;;;;;;5.47;4.97;;;12.90;67.80;;;;;;4975918;28;20540;-76
2023/04/09 07:28:49;;;;;;;5.37;4.97;;;12.80;65.60;;;;;;4978410;28;20446;-76
2023/04/09 07:31:16;;;;;;;5.20;4.80;;;12.50;66.90;;;;;;4978077;28;21010;-76
2023/04/09 07:33:43;;;;;;;5.73;4.80;;;12.40;68.10;;;;;;4977892;28;20902;-75
2023/04/09 07:36:09;;;;;;;4.90;4.40;;;12.60;67.20;;;;;;4978251;28;20449;-76
2023/04/09 07:38:36;;;;;;;4.47;4.07;;;12.50;66.30;;;;;;4978200;28;20446;-76
2023/04/09 07:41:03;;;;;;;4.60;4.20;;;12.60;66.80;;;;;;4978400;28;20446;-76
2023/04/09 07:43:31;;;;;;;4.30;3.90;;;12.70;66.30;;;;;;4978079;28;20471;-75
2023/04/09 07:45:58;;;;;;;5.00;4.60;;;12.60;66.10;;;;;;4977730;28;21020;-74
2023/04/09 07:48:26;;;;;;;4.80;4.40;;;12.30;66.90;;;;;;4978043;28;20442;-75
2023/04/09 07:50:53;;;;;;;4.90;4.50;;;12.30;66.80;;;;;;4977991;28;20457;-76
2023/04/09 07:53:20;;;;;;;4.40;3.90;;;12.40;66.30;;;;;;4977860;28;20540;-75
2023/04/09 07:55:46;;;;;;;4.40;4.00;;;12.60;66.40;;;;;;4977939;28;20505;-76
2023/04/09 07:58:13;;;;;;;4.13;3.73;;;12.60;64.10;;;;;;4977537;28;20871;-76
2023/04/09 08:00:41;;;;;;;4.73;4.33;;;12.70;64.80;;;;;;4978035;28;20446;-76
2023/04/09 08:03:08;;;;;;;4.80;4.40;;;12.70;64.10;;;;;;4977765;28;20470;-75
2023/04/09 08:05:36;;;;;;;4.10;3.70;;;12.40;63.30;;;;;;4977665;28;20909;-76
2023/04/09 08:08:03;;;;;;;4.10;3.70;;;12.20;65.20;;;;;;4977647;28;20454;-75
2023/04/09 08:10:30;;;;;;;3.80;3.50;;;12.30;64.70;;;;;;4977517;28;20478;-76
2023/04/09 08:12:56;;;;;;;4.30;3.50;;;12.30;65.80;;;;;;4977464;28;20470;-76
2023/04/09 08:15:23;;;;;;;4.17;3.77;;;12.80;65.60;;;;;;4977614;28;20494;-75
2023/04/09 08:17:51;;;;;;;3.97;3.57;;;12.80;62.00;;;;;;4977509;28;20454;-76
2023/04/09 08:20:18;;;;;;;3.47;3.17;;;12.60;63.80;;;;;;4977149;28;20951;-77
2023/04/09 08:22:45;;;;;;;4.20;3.73;;;12.60;62.00;;;;;;4977154;28;21013;-76
2023/04/09 08:25:12;;;;;;;4.33;3.93;;;12.40;63.70;;;;;;4977447;28;20450;-76
2023/04/09 08:27:38;;;;;;;5.33;4.83;;;12.40;64.00;;;;;;4977293;28;20540;-76
2023/04/09 08:30:06;;;;;;;4.70;4.30;;;12.20;63.80;;;;;;4977403;28;20872;-77
2023/04/09 08:32:33;;;;;;;4.20;3.80;;;12.40;65.40;;;;;;4977293;28;20481;-77
2023/04/09 08:35:01;;;;;;;4.10;3.70;;;12.50;62.50;;;;;;4977184;28;20873;-77
2023/04/09 08:37:28;;;;;;;3.77;3.47;;;12.60;62.30;;;;;;4976650;28;20496;-77
2023/04/09 08:39:55;;;;;;;4.37;3.93;;;12.60;61.80;;;;;;4977122;28;20543;-77
2023/04/09 08:42:22;;;;;;;4.50;3.93;;;12.50;63.00;;;;;;4977151;28;20450;-77
2023/04/09 08:44:50;;;;;;;4.40;4.00;;;12.70;63.90;;;;;;4976734;28;21042;-77
2023/04/09 08:47:17;;;;;;;3.90;3.50;;;13.00;64.60;;;;;;4976943;28;20478;-76
2023/04/09 08:49:44;;;;;;;3.73;3.33;;;12.90;61.80;;;;;;4976991;28;20505;-77
2023/04/09 08:52:15;;;;;;;4.17;3.77;;;12.80;60.90;;;;;;4976876;28;20455;-76
2023/04/09 08:54:41;;;;;;;3.43;3.13;;;12.70;62.40;;;;;;4976805;28;20904;-76
2023/04/09 08:57:08;;;;;;;4.03;3.63;;;12.50;61.10;;;;;;4976812;28;20450;-77
2023/04/09 08:59:35;;;;;;;4.13;3.67;;;12.40;61.10;;;;;;4976826;28;20825;-77
2023/04/09 09:02:10;;;;;;;3.83;3.40;;;12.50;61.60;;;;;;4976697;28;20450;-76
2023/04/09 09:04:46;;;;;;;4.10;3.70;;;12.40;60.00;;;;;;4976830;28;20481;-76
2023/04/09 09:07:15;;;;;;;3.60;3.30;;;12.40;61.30;;;;;;4976566;28;20487;-77
2023/04/09 09:09:53;;;;;;;4.10;3.70;;;12.40;62.60;;;;;;4976653;28;20451;-77
2023/04/09 09:12:39;;;;;;;4.17;3.77;;;12.50;60.00;;;;;;4976539;28;20497;-77
2023/04/09 09:15:26;;;;;;;4.50;4.10;;;12.30;62.50;;;;;;4976584;28;20470;-77
2023/04/09 09:17:55;;;;;;;3.50;3.17;;;12.20;61.50;;;;;;4976486;28;20774;-77
2023/04/09 09:20:22;;;;;;;4.37;3.97;;;12.10;60.10;;;;;;4976728;28;20569;-77
2023/04/09 09:22:52;;;;;;;4.27;3.87;;;12.10;60.30;;;;;;4976305;28;20496;-77
2023/04/09 09:25:22;;;;;;;4.37;3.97;;;12.00;62.70;;;;;;4976302;28;20501;-78
2023/04/09 09:27:49;;;;;;;3.90;3.50;;;12.30;63.30;;;;;;4976183;28;20834;-76
2023/04/09 09:30:21;;;;;;;4.27;3.87;;;12.10;62.60;;;;;;4976191;28;20888;-77
2023/04/09 09:32:51;;;;;;;4.37;3.93;;;12.30;61.40;;;;;;4976196;28;20442;-77
2023/04/09 09:35:18;;;;;;;4.37;3.97;;;12.10;61.50;;;;;;4976192;28;20458;-77
2023/04/09 09:37:44;;;;;;;4.27;3.87;;;12.10;61.40;;;;;;4976071;28;20442;-77
2023/04/09 09:40:26;;;;;;;2.90;2.40;;;12.40;63.40;;;;;;4976122;28;20485;-77
2023/04/09 09:42:55;;;;;;;2.93;2.63;;;12.10;57.70;;;;;;4976031;28;20430;-77
2023/04/09 09:45:22;;;;;;;3.50;3.20;;;12.20;60.00;;;;;;4975997;28;20533;-77
2023/04/09 09:47:50;;;;;;;4.20;3.80;;;12.10;59.80;;;;;;4976104;28;20513;-77
2023/04/09 09:50:16;;;;;;;4.70;3.40;;;12.30;60.50;;;;;;4975799;28;20450;-77
2023/04/09 09:52:46;;;;;;;3.40;3.10;;;12.30;60.40;;;;;;4975820;28;20450;-76
2023/04/09 09:55:16;;;;;;;3.20;2.77;;;12.00;59.80;;;;;;4975748;28;20513;-76
2023/04/09 09:57:46;;;;;;;4.30;3.70;;;12.00;61.00;;;;;;4975494;28;20986;-76
2023/04/09 10:00:14;;;;;;;3.63;3.17;;;12.10;61.40;;;;;;4975761;28;20461;-77
2023/04/09 10:02:46;;;;;;;3.80;3.50;;;12.10;60.60;;;;;;4975404;28;21014;-77
2023/04/09 10:05:13;;;;;;;4.07;3.70;;;12.20;61.90;;;;;;4975673;28;20435;-77
2023/04/09 10:07:41;;;;;;;4.27;3.87;;;12.50;62.50;;;;;;4975557;28;20482;-77
2023/04/09 10:10:09;;;;;;;2.93;2.63;;;12.70;59.80;;;;;;4975566;28;20527;-77
2023/04/09 10:12:40;;;;;;;3.27;2.50;;;12.70;59.30;;;;;;4975371;28;20528;-77
2023/04/09 10:15:09;;;;;;;3.77;3.37;;;12.50;57.10;;;;;;4975489;28;20431;-77
2023/04/09 10:17:35;;;;;;;3.40;3.10;;;12.20;59.10;;;;;;4975358;28;20443;-77
2023/04/09 10:20:14;;;;;;;3.63;3.20;;;12.30;61.70;;;;;;4975385;28;20442;-76
2023/04/09 10:22:46;;;;;;;4.80;2.60;;;12.50;58.30;;;;;;4975234;28;20435;-77
2023/04/09 10:25:12;;;;;;;2.80;2.20;;;12.30;56.90;;;;;;4975588;28;20443;-77
2023/04/09 10:27:43;;;;;;;2.70;2.20;;;12.30;57.00;;;;;;4975251;28;20486;-77
2023/04/09 10:30:10;;;;;;;3.43;3.13;;;12.30;57.20;;;;;;4975223;28;20442;-77
2023/04/09 10:32:37;;;;;;;4.07;3.33;;;12.20;58.70;;;;;;4974802;28;20944;-77
2023/04/09 10:35:04;;;;;;;3.47;3.17;;;12.30;60.80;;;;;;4975097;28;20460;-77
2023/04/09 10:37:31;;;;;;;2.90;2.60;;;12.40;60.50;;;;;;4975130;28;20478;-77
2023/04/09 10:39:57;;;;;;;3.80;3.40;;;12.50;59.50;;;;;;4975103;28;20505;-77
2023/04/09 10:42:31;;;;;;;3.50;3.10;;;12.70;58.90;;;;;;4974969;28;20454;-77
2023/04/09 10:45:08;;;;;;;3.07;2.70;;;13.20;58.80;;;;;;4974947;28;20524;-77
2023/04/09 10:47:36;;;;;;;2.93;2.50;;;13.60;58.70;;;;;;4974853;28;20834;-77
2023/04/09 10:50:20;;;;;;;3.37;3.00;;;13.60;55.50;;;;;;4974837;28;20450;-77
2023/04/09 10:52:47;;;;;;;3.20;2.80;;;13.60;55.30;;;;;;4974756;28;20457;-77
2023/04/09 10:55:34;;;;;;;3.27;2.97;;;13.40;55.30;;;;;;5012374;23;20489;-72
2023/04/09 10:58:00;;;;;;;3.53;3.20;;;13.30;56.70;;;;;;4994086;28;20445;-71
2023/04/09 11:00:28;;;;;;;2.80;2.33;;;13.00;56.30;;;;;;4993893;28;20507;-73
2023/04/09 11:03:14;;;;;;;2.90;2.60;;;13.10;55.60;;;;;;4994035;28;20449;-77
2023/04/09 11:05:42;;;;;;;2.83;2.40;;;13.00;53.70;;;;;;4993782;28;21041;-72
2023/04/09 11:08:11;;;;;;;2.83;2.20;;;12.80;53.80;;;;;;4993768;28;21078;-72
2023/04/09 11:10:38;;;;;;;2.83;2.37;;;12.80;53.10;;;;;;4994068;28;20503;-71
2023/04/09 11:13:05;;;;;;;2.90;2.30;;;12.60;54.10;;;;;;4993678;28;20450;-70
2023/04/09 11:15:35;;;;;;;2.60;2.20;;;12.50;55.00;;;;;;4993895;28;20465;-71
2023/04/09 11:18:02;;;;;;;5.30;4.80;;;12.50;55.20;;;;;;4993892;28;20449;-72
2023/04/09 11:20:30;;;;;;;2.77;2.37;;;12.70;55.80;;;;;;4993885;28;20449;-71
2023/04/09 11:22:56;;;;;;;3.30;2.80;;;13.00;55.60;;;;;;4993773;28;20540;-71
2023/04/09 11:25:26;;;;;;;2.40;2.03;;;12.90;55.30;;;;;;4993790;28;20524;-72
2023/04/09 11:27:53;;;;;;;2.60;2.30;;;13.00;54.60;;;;;;4993767;28;20481;-72
2023/04/09 11:30:20;;;;;;;3.10;2.50;;;13.20;54.50;;;;;;4993849;28;20445;-72
2023/04/09 11:32:48;;;;;;;3.07;2.53;;;13.10;53.80;;;;;;4993804;28;20456;-72
2023/04/09 11:35:16;;;;;;;3.17;2.40;;;13.00;54.00;;;;;;4993643;28;20568;-70
2023/04/09 11:37:44;;;;;;;2.73;2.37;;;13.00;54.10;;;;;;4993741;28;20500;-71
2023/04/09 11:40:18;;;;;;;2.60;2.23;;;13.40;54.60;;;;;;4993655;28;20465;-72
2023/04/09 11:42:47;;;;;;;3.20;2.90;;;13.50;52.40;;;;;;4993407;28;21011;-72
2023/04/09 11:45:15;;;;;;;3.73;3.30;;;13.80;52.10;;;;;;4993638;28;20472;-72
2023/04/09 11:47:43;;;;;;;2.70;2.10;;;13.90;53.50;;;;;;4993294;28;21021;-73
2023/04/09 11:50:13;;;;;;;2.80;2.50;;;14.50;52.10;;;;;;4993492;28;20500;-72
2023/04/09 11:52:40;;;;;;;2.37;2.07;;;14.30;50.60;;;;;;4993754;28;20454;-72
2023/04/09 11:55:08;;;;;;;3.03;2.70;;;14.20;50.40;;;;;;4994143;28;20564;-73
2023/04/09 11:57:42;;;;;;;3.10;2.30;;;14.00;50.80;;;;;;4993516;28;20453;-73
2023/04/09 12:00:11;;;;;;;2.80;2.40;;;14.00;53.20;;;;;;4993495;28;20499;-70
2023/04/09 12:02:39;;;;;;;2.47;1.90;;;13.90;50.80;;;;;;4993472;28;20450;-71
2023/04/09 12:05:09;;;;;;;2.60;2.10;;;13.30;51.90;;;;;;4993132;28;20983;-72
2023/04/09 12:07:37;;;;;;;2.53;2.17;;;13.50;52.90;;;;;;4993400;28;20485;-70
2023/04/09 12:10:05;;;;;;;2.80;2.50;;;13.70;52.50;;;;;;4993372;28;20503;-73
2023/04/09 12:12:39;;;;;;;2.70;2.33;;;14.00;51.40;;;;;;4994749;28;20923;-76
2023/04/09 12:15:12;;;;;;;2.80;2.47;;;14.00;50.60;;;;;;4996977;28;20473;-76
2023/04/09 12:17:38;;;;;;;2.87;2.13;;;14.20;50.30;;;;;;4997036;28;20430;-71
2023/04/09 12:20:08;;;;;;;2.90;2.57;;;14.50;49.00;;;;;;4996876;28;20449;-74
2023/04/09 12:22:39;;;;;;;3.33;2.90;;;14.30;49.70;;;;;;4996494;28;20511;-75
2023/04/09 12:25:07;;;;;;;3.10;2.63;;;14.20;50.10;;;;;;4996710;28;20523;-74
2023/04/09 12:27:33;;;;;;;2.80;2.50;;;14.40;51.60;;;;;;4996514;28;20484;-73
2023/04/09 12:30:00;;;;;;;2.50;2.23;;;14.80;49.70;;;;;;4996483;28;20881;-74
2023/04/09 12:32:27;;;;;;;3.03;2.73;;;14.70;50.30;;;;;;4996361;28;21001;-75
2023/04/09 12:34:53;;;;;;;2.80;2.47;;;14.90;50.30;;;;;;4996261;28;20862;-74
2023/04/09 12:37:21;;;;;;;3.00;2.70;;;15.00;49.70;;;;;;4996602;28;20935;-74
2023/04/09 12:39:49;;;;;;;2.57;2.07;;;15.30;51.00;;;;;;4996644;28;20487;-71
2023/04/09 12:42:16;;;;;;;2.93;2.50;;;15.20;48.80;;;;;;4996619;28;20448;-73
2023/04/09 12:44:43;;;;;;;3.40;3.07;;;14.90;49.40;;;;;;4996394;28;20516;-73
2023/04/09 12:47:09;;;;;;;3.07;2.47;;;14.80;50.40;;;;;;4996320;28;20536;-73
2023/04/09 12:49:36;;;;;;;2.73;2.30;;;14.80;50.30;;;;;;4996348;28;20453;-73
2023/04/09 12:52:03;;;;;;;2.50;2.07;;;14.80;49.10;;;;;;4996323;28;20450;-72
2023/04/09 12:54:30;;;;;;;3.23;2.53;;;14.90;50.10;;;;;;4995921;28;20476;-73
2023/04/09 12:56:58;;;;;;;3.23;2.90;;;15.10;49.90;;;;;;4996209;28;20484;-72
2023/04/09 12:59:24;;;;;;;2.70;2.30;;;15.20;48.80;;;;;;4996706;28;20453;-74
2023/04/09 13:01:51;;;;;;;3.10;2.80;;;15.50;47.50;;;;;;4995878;28;20495;-74
2023/04/09 13:04:18;;;;;;;2.83;2.53;;;15.30;48.10;;;;;;4996416;28;20516;-74
2023/04/09 13:06:44;;;;;;;2.90;2.27;;;15.40;48.60;;;;;;4996592;28;20519;-74
2023/04/09 13:09:11;;;;;;;2.70;2.30;;;15.30;50.60;;;;;;4995945;28;20491;-74
2023/04/09 13:11:38;;;;;;;2.67;2.47;;;15.40;51.20;;;;;;4995992;28;20480;-74
2023/04/09 13:14:06;;;;;;;3.20;2.90;;;15.40;50.20;;;;;;4995930;28;20535;-73
2023/04/09 13:16:33;;;;;;;2.70;2.30;;;15.70;51.60;;;;;;4995941;28;20865;-72
2023/04/09 13:18:59;;;;;;;3.30;3.00;;;15.80;50.00;;;;;;4995842;28;20446;-74
2023/04/09 13:21:26;;;;;;;2.80;2.40;;;16.20;50.70;;;;;;4995857;28;20449;-73
2023/04/09 13:23:53;;;;;;;3.17;2.50;;;16.30;49.30;;;;;;4995680;28;20469;-73
2023/04/09 13:26:19;;;;;;;2.77;2.37;;;16.40;48.60;;;;;;4995462;28;20798;-73
2023/04/09 13:28:46;;;;;;;2.90;2.60;;;16.20;47.70;;;;;;4995327;28;21069;-73
2023/04/09 13:31:14;;;;;;;2.77;1.93;;;16.60;47.90;;;;;;4995662;28;20468;-73
2023/04/09 13:33:40;;;;;;;2.77;2.23;;;16.60;46.90;;;;;;4995850;28;20473;-73
2023/04/09 13:36:07;;;;;;;2.70;2.10;;;16.50;47.20;;;;;;4995600;28;20449;-73
2023/04/09 13:38:34;;;;;;;3.20;2.50;;;16.30;47.20;;;;;;4995498;28;20508;-74
2023/04/09 13:41:01;;;;;;;2.50;1.93;;;16.30;48.00;;;;;;4995514;28;20841;-73
2023/04/09 13:43:28;;;;;;;2.30;1.80;;;16.20;47.90;;;;;;4995238;28;20484;-73
2023/04/09 13:45:54;;;;;;;2.77;2.20;;;16.10;47.00;;;;;;4995064;28;21013;-72
2023/04/09 13:48:24;;;;;;;2.90;2.20;;;15.90;45.60;;;;;;4995202;28;20476;-73
2023/04/09 13:50:50;;;;;;;3.00;2.57;;;15.90;46.30;;;;;;4995157;28;20537;-73
2023/04/09 13:53:17;;;;;;;2.73;2.40;;;15.70;47.90;;;;;;4995123;28;20450;-74
2023/04/09 13:55:44;;;;;;;2.60;1.97;;;15.60;48.00;;;;;;4994912;28;20485;-73
2023/04/09 13:58:10;;;;;;;2.40;1.80;;;15.60;48.50;;;;;;4995078;28;20532;-73
2023/04/09 14:00:38;;;;;;;3.13;2.50;;;15.60;48.50;;;;;;4995110;28;20449;-73
2023/04/09 14:03:05;;;;;;;2.60;2.10;;;15.60;48.80;;;;;;4994690;28;20862;-73
2023/04/09 14:05:33;;;;;;;2.60;2.27;;;15.30;48.30;;;;;;4994492;28;21001;-72
2023/04/09 14:08:00;;;;;;;2.87;2.47;;;15.30;49.00;;;;;;4994598;28;21020;-73
2023/04/09 14:10:27;;;;;;;2.70;2.40;;;15.10;49.30;;;;;;4994519;28;20935;-73
2023/04/09 14:12:54;;;;;;;3.00;2.50;;;15.10;49.50;;;;;;4994745;28;20467;-73
2023/04/09 14:15:20;;;;;;;2.57;2.00;;;15.20;49.90;;;;;;4994724;28;20509;-73
2023/04/09 14:17:47;;;;;;;2.80;2.37;;;15.10;48.70;;;;;;4994653;28;20446;-73
2023/04/09 14:20:15;;;;;;;2.97;2.37;;;15.00;49.50;;;;;;4994653;28;20452;-73
2023/04/09 14:22:47;;;;;;;2.60;2.13;;;15.00;49.80;;;;;;4994672;28;20453;-73
2023/04/09 14:25:14;;;;;;;3.10;2.50;;;14.80;49.40;;;;;;4994659;28;20465;-70
2023/04/09 14:27:41;;;;;;;2.70;2.10;;;14.70;50.00;;;;;;4994759;28;20482;-73
2023/04/09 14:30:10;;;;;;;2.57;2.00;;;14.70;50.10;;;;;;4994185;28;20457;-75
2023/04/09 14:32:36;;;;;;;2.70;2.30;;;15.00;49.60;;;;;;4994163;28;20855;-73
2023/04/09 14:35:03;;;;;;;2.50;2.00;;;15.40;48.80;;;;;;4993823;28;20826;-73
2023/04/09 14:37:30;;;;;;;2.43;1.83;;;15.30;49.10;;;;;;4994440;28;20515;-73
2023/04/09 14:39:58;;;;;;;2.60;2.30;;;15.00;48.70;;;;;;4994364;28;20453;-72
2023/04/09 14:42:24;;;;;;;2.77;2.00;;;15.00;48.80;;;;;;4994029;28;21150;-73
2023/04/09 14:44:51;;;;;;;2.93;2.20;;;14.80;48.60;;;;;;4994251;28;20517;-73
2023/04/09 14:47:18;;;;;;;3.10;2.73;;;14.70;49.10;;;;;;4994220;28;20997;-73
2023/04/09 14:49:44;;;;;;;2.73;2.03;;;14.80;49.30;;;;;;4994237;28;20535;-73
2023/04/09 14:52:11;;;;;;;2.93;2.23;;;16.00;48.30;;;;;;4994222;28;20453;-74
2023/04/09 14:54:37;;;;;;;2.57;1.97;;;16.70;45.50;;;;;;4993770;28;20986;-72
2023/04/09 14:57:05;;;;;;;2.80;2.30;;;16.70;46.00;;;;;;4994187;28;20803;-72
2023/04/09 14:59:32;;;;;;;2.60;2.17;;;16.30;46.50;;;;;;4995243;28;20453;-72
2023/04/09 15:01:59;;;;;;;3.10;2.77;;;15.90;47.80;;;;;;4995504;28;20942;-73
2023/04/09 15:04:26;;;;;;;3.53;3.07;;;16.30;47.20;;;;;;4994795;28;20488;-73
2023/04/09 15:06:52;;;;;;;3.57;2.70;;;16.70;46.90;;;;;;4994120;28;20803;-73
2023/04/09 15:09:19;;;;;;;3.27;2.93;;;16.10;47.40;;;;;;4994124;28;20477;-73
2023/04/09 15:11:46;;;;;;;3.23;2.77;;;15.80;48.00;;;;;;4994113;28;20516;-73
2023/04/09 15:14:13;;;;;;;3.13;2.83;;;15.90;47.80;;;;;;4994058;28;20469;-73
2023/04/09 15:16:40;;;;;;;3.30;2.30;;;15.70;47.90;;;;;;4993973;28;20449;-73
2023/04/09 15:19:07;;;;;;;3.53;3.00;;;15.30;48.90;;;;;;4994102;28;20450;-72
2023/04/09 15:21:33;;;;;;;3.20;2.70;;;14.80;49.70;;;;;;4994028;28;20865;-72
2023/04/09 15:24:00;;;;;;;3.47;3.07;;;14.70;50.40;;;;;;4993912;28;20834;-73
2023/04/09 15:26:27;;;;;;;3.40;2.40;;;14.70;50.10;;;;;;4993549;28;20961;-72
2023/04/09 15:29:01;;;;;;;2.70;2.30;;;14.80;49.10;;;;;;4993980;28;20495;-73
2023/04/09 15:31:29;;;;;;;2.60;2.10;;;15.00;49.40;;;;;;4993816;28;20516;-73
2023/04/09 15:33:55;;;;;;;2.90;2.43;;;16.00;47.00;;;;;;4993705;28;20565;-73
2023/04/09 15:36:22;;;;;;;3.10;2.50;;;16.40;46.80;;;;;;4993781;28;20449;-73
2023/04/09 15:38:49;;;;;;;3.00;2.60;;;15.90;46.80;;;;;;4993765;28;20441;-73
2023/04/09 15:41:16;;;;;;;3.33;2.93;;;15.40;48.40;;;;;;4993576;28;20445;-73
2023/04/09 15:43:43;;;;;;;2.77;2.13;;;15.20;49.20;;;;;;4993472;28;20489;-73
2023/04/09 15:46:11;;;;;;;3.40;2.50;;;15.20;49.40;;;;;;4993859;28;20457;-73
2023/04/09 15:48:39;;;;;;;2.60;2.03;;;15.00;49.20;;;;;;4997415;28;20489;-73
2023/04/09 15:51:06;;;;;;;3.50;2.73;;;15.10;50.20;;;;;;4998351;28;20453;-73
2023/04/09 15:53:32;;;;;;;3.30;2.83;;;14.90;49.20;;;;;;4997472;28;20445;-73
2023/04/09 15:55:59;;;;;;;2.63;2.20;;;14.70;49.50;;;;;;4997426;28;20496;-73
2023/04/09 15:58:26;;;;;;;2.73;2.07;;;14.50;49.50;;;;;;4997375;28;20864;-73
2023/04/09 16:00:52;;;;;;;2.90;2.20;;;14.40;50.10;;;;;;4997347;28;20445;-73
2023/04/09 16:03:19;;;;;;;2.80;2.33;;;14.20;50.70;;;;;;5000727;28;20526;-74
2023/04/09 16:05:48;;;;;;;2.83;2.40;;;14.10;50.80;;;;;;5001460;28;20453;-76
2023/04/09 16:08:15;;;;;;;3.00;2.50;;;14.00;51.10;;;;;;4997802;28;20539;-76
2023/04/09 16:10:41;;;;;;;2.40;1.90;;;13.90;49.80;;;;;;4998264;28;20536;-76
2023/04/09 16:13:08;;;;;;;2.90;2.30;;;14.00;50.70;;;;;;4998115;28;20528;-75
2023/04/09 16:15:35;;;;;;;3.17;2.57;;;14.10;50.20;;;;;;4997148;28;21028;-76
2023/04/09 16:18:02;;;;;;;2.70;2.00;;;14.00;50.30;;;;;;4998314;28;20485;-75
2023/04/09 16:20:30;;;;;;;2.93;2.43;;;14.10;50.80;;;;;;5000960;28;20453;-73
2023/04/09 16:22:58;;;;;;;3.17;2.60;;;14.10;50.90;;;;;;4997757;28;20460;-74
2023/04/09 16:25:24;;;;;;;2.93;2.50;;;14.00;51.60;;;;;;4997193;28;20473;-75
2023/04/09 16:27:51;;;;;;;3.53;2.97;;;14.00;51.70;;;;;;4997617;28;20456;-74
2023/04/09 16:30:18;;;;;;;3.13;2.40;;;14.10;51.30;;;;;;4997599;28;20480;-75
2023/04/09 16:32:44;;;;;;;3.60;2.50;;;14.00;50.30;;;;;;4997740;28;20445;-75
2023/04/09 16:35:11;;;;;;;3.10;2.50;;;13.90;50.30;;;;;;4997557;28;20473;-74
2023/04/09 16:37:38;;;;;;;2.40;1.90;;;13.90;50.10;;;;;;4997932;28;20469;-74
2023/04/09 16:40:07;;;;;;;3.10;2.50;;;13.80;50.20;;;;;;4997984;28;21015;-74
2023/04/09 16:42:35;;;;;;;3.07;2.40;;;13.70;50.00;;;;;;4997996;28;20453;-73
2023/04/09 16:45:03;;;;;;;2.50;2.00;;;13.70;50.70;;;;;;4998129;28;20473;-73
2023/04/09 16:47:30;;;;;;;3.83;2.80;;;13.70;50.80;;;;;;4999321;28;20450;-74
2023/04/09 16:49:57;;;;;;;2.80;2.30;;;13.60;51.10;;;;;;4998020;28;20493;-74